Pagrindinis puslapis
METAR-TAF:

METAR-TAF

Oro uostai :

Kaneohe, Havajai, Jungtinės Amerikos Valstijos

platuma: 21-27-14N, ilguma: 157-45-56W, Aukštis: 5 m

Dabartinis oras

Ataskaita buvo paskelbta 34 minutes, ne 08:57 UTC
Vėjas 11 kt iš Rytų su gūsio iki 19 kt
Temperatūra 28°C
Drėgmė 66%
Slėgis 1013 hPa
Matomumas: 16.1 km
Mažai debesys ne aukštis 3000 ft

METAR: PHNG 180857Z 09011G19KT 10SM FEW030 28/21 A2992 RMK AO2 SLP126 T02780211 50003

Laikas: 23:31 (09:31 UTC)

Prognozė

Prognozė galioja nuo 18 metu 09 UTC su 19 metu 09 UTC
Vėjas 10 kt iš Rytų/Pietryčių
Matomumas 10 km arba daugiau
Mažai debesys ne aukštis 2000 ft
Išsisklaidę debesys ne aukštis 4500 ft
Laikinai
nuo 18 metu 12 UTC su 18 metu 18 UTC
Vėjas 12 kt iš Rytų su gūsio iki 18 kt
Su prošvaistėmis ne aukštis 2500 ft
Laikinai
nuo 19 metu 05 UTC su 19 metu 09 UTC
Vėjas 10 kt iš Rytų su gūsio iki 18 kt

TAF: PHNG 1809/1909 11010KT 9999 FEW020 SCT045 QNH2985INS TEMPO 1812/1818 09012G18KT BKN025 TEMPO 1905/1909 09010G18KT T26/1812Z T31/1821Z

Orai ataskaitas ir orų prognozės (METAR, TAF).

turimą stotys yra geltonos ir raudonos taškus žemėlapyje.

Perkelti pele per norėdami pamatyti stoties vardą.

Tada spustelėkite, norėdami matyti oro stebėjimo ir prognozės.

Norėdami pakeisti žemėlapį: spustelėkite ant žalios mygtukų su juodo kryžiaus žemyn,; žalią mygtuką su brūkšneliu, jei norite nutolinti; arba žalių rodyklių gretimoms žemėlapius.


METAR-TAF: